< < Back
Terminal Aerodrome Forecast


Current Version              Previous Versions:   1  2  3  4  5  6  7  8  9  

Terminal Aerodrome Forecast

953
FTUS42 KILM 292350 CCB
TAFFLO
TAF COR
KFLO 292350Z 3000/3024 23006KT P6SM VCTS FEW030CB SCT060
     FM300100 24004KT P6SM BKN150
     FM301400 23009KT P6SM SCT050 PROB30 3018/3024 VRB15G30KT 4SM
      TSRA BKN035CB=

Latest METAR

138
SAUS70 KWBC 300700 RRI
MTRFLO
METAR KFLO 300653Z AUTO 00000KT 10SM CLR 25/23 A2993 RMK AO2 SLP133
T02500233


USA.gov is the U.S. government's official web portal to all federal, state and local government web resources and services.